sensor_id;sensor_type;location;lat;lon;timestamp;P1;durP1;ratioP1;P2;durP2;ratioP2
10894;SDS011;5500;49.886;8.074;2023-02-28T00:01:08;2.20;;;1.90;;
10894;SDS011;5500;49.886;8.074;2023-02-28T00:03:36;3.90;;;1.80;;
10894;SDS011;5500;49.886;8.074;2023-02-28T00:06:04;2.93;;;1.93;;
10894;SDS011;5500;49.886;8.074;2023-02-28T00:08:33;2.80;;;2.03;;
10894;SDS011;5500;49.886;8.074;2023-02-28T00:11:01;2.90;;;1.83;;
10894;SDS011;5500;49.886;8.074;2023-02-28T00:13:29;2.97;;;2.00;;
10894;SDS011;5500;49.886;8.074;2023-02-28T00:16:00;2.80;;;2.10;;
10894;SDS011;5500;49.886;8.074;2023-02-28T00:18:30;3.30;;;2.17;;
10894;SDS011;5500;49.886;8.074;2023-02-28T00:20:57;2.30;;;2.00;;
10894;SDS011;5500;49.886;8.074;2023-02-28T00:23:25;3.10;;;2.07;;
10894;SDS011;5500;49.886;8.074;2023-02-28T00:25:54;1.97;;;1.60;;
10894;SDS011;5500;49.886;8.074;2023-02-28T00:28:21;2.23;;;1.97;;
10894;SDS011;5500;49.886;8.074;2023-02-28T00:30:49;1.70;;;1.60;;
10894;SDS011;5500;49.886;8.074;2023-02-28T00:33:17;4.43;;;2.00;;
10894;SDS011;5500;49.886;8.074;2023-02-28T00:35:46;2.90;;;1.93;;
10894;SDS011;5500;49.886;8.074;2023-02-28T00:38:14;2.07;;;1.87;;
10894;SDS011;5500;49.886;8.074;2023-02-28T00:40:44;2.17;;;1.77;;
10894;SDS011;5500;49.886;8.074;2023-02-28T00:43:11;2.13;;;1.93;;
10894;SDS011;5500;49.886;8.074;2023-02-28T00:45:39;8.80;;;1.90;;
10894;SDS011;5500;49.886;8.074;2023-02-28T00:48:07;4.07;;;2.00;;
10894;SDS011;5500;49.886;8.074;2023-02-28T00:50:34;3.63;;;1.73;;
10894;SDS011;5500;49.886;8.074;2023-02-28T00:53:03;5.77;;;2.43;;
10894;SDS011;5500;49.886;8.074;2023-02-28T00:55:31;2.87;;;1.97;;
10894;SDS011;5500;49.886;8.074;2023-02-28T00:57:59;2.57;;;2.07;;
10894;SDS011;5500;49.886;8.074;2023-02-28T01:00:26;2.10;;;1.90;;
10894;SDS011;5500;49.886;8.074;2023-02-28T01:02:54;2.43;;;1.90;;
10894;SDS011;5500;49.886;8.074;2023-02-28T01:05:21;3.77;;;2.20;;
10894;SDS011;5500;49.886;8.074;2023-02-28T01:07:50;3.07;;;2.27;;
10894;SDS011;5500;49.886;8.074;2023-02-28T01:10:18;1.77;;;1.67;;
10894;SDS011;5500;49.886;8.074;2023-02-28T01:12:46;2.60;;;2.13;;
10894;SDS011;5500;49.886;8.074;2023-02-28T01:15:14;3.33;;;2.40;;
10894;SDS011;5500;49.886;8.074;2023-02-28T01:17:42;2.80;;;2.50;;
10894;SDS011;5500;49.886;8.074;2023-02-28T01:20:10;2.10;;;1.90;;
10894;SDS011;5500;49.886;8.074;2023-02-28T01:22:38;2.13;;;1.83;;
10894;SDS011;5500;49.886;8.074;2023-02-28T01:25:06;2.77;;;1.97;;
10894;SDS011;5500;49.886;8.074;2023-02-28T01:27:36;3.33;;;2.13;;
10894;SDS011;5500;49.886;8.074;2023-02-28T01:30:06;4.13;;;2.23;;
10894;SDS011;5500;49.886;8.074;2023-02-28T01:32:35;2.77;;;2.57;;
10894;SDS011;5500;49.886;8.074;2023-02-28T01:35:03;4.57;;;2.70;;
10894;SDS011;5500;49.886;8.074;2023-02-28T01:37:30;2.97;;;2.77;;
10894;SDS011;5500;49.886;8.074;2023-02-28T01:39:58;2.90;;;2.60;;
10894;SDS011;5500;49.886;8.074;2023-02-28T01:42:26;5.10;;;2.57;;
10894;SDS011;5500;49.886;8.074;2023-02-28T01:45:06;4.40;;;2.80;;
10894;SDS011;5500;49.886;8.074;2023-02-28T01:47:49;5.07;;;2.40;;
10894;SDS011;5500;49.886;8.074;2023-02-28T01:50:19;4.27;;;2.50;;
10894;SDS011;5500;49.886;8.074;2023-02-28T01:52:48;4.60;;;2.30;;
10894;SDS011;5500;49.886;8.074;2023-02-28T01:55:17;3.33;;;3.00;;
10894;SDS011;5500;49.886;8.074;2023-02-28T01:57:46;3.40;;;2.93;;
10894;SDS011;5500;49.886;8.074;2023-02-28T02:00:22;6.83;;;3.40;;
10894;SDS011;5500;49.886;8.074;2023-02-28T02:02:53;3.70;;;3.00;;
10894;SDS011;5500;49.886;8.074;2023-02-28T02:05:22;3.30;;;3.00;;
10894;SDS011;5500;49.886;8.074;2023-02-28T02:07:52;5.57;;;3.73;;
10894;SDS011;5500;49.886;8.074;2023-02-28T02:10:24;4.40;;;2.90;;
10894;SDS011;5500;49.886;8.074;2023-02-28T02:13:03;7.87;;;4.07;;
10894;SDS011;5500;49.886;8.074;2023-02-28T02:15:38;7.10;;;3.97;;
10894;SDS011;5500;49.886;8.074;2023-02-28T02:18:10;5.40;;;3.77;;
10894;SDS011;5500;49.886;8.074;2023-02-28T02:20:58;5.80;;;3.87;;
10894;SDS011;5500;49.886;8.074;2023-02-28T02:23:57;5.20;;;3.57;;
10894;SDS011;5500;49.886;8.074;2023-02-28T02:32:21;4.10;;;3.53;;
10894;SDS011;5500;49.886;8.074;2023-02-28T02:35:02;4.00;;;3.60;;
10894;SDS011;5500;49.886;8.074;2023-02-28T02:37:36;5.73;;;4.10;;
10894;SDS011;5500;49.886;8.074;2023-02-28T02:40:09;4.60;;;4.20;;
10894;SDS011;5500;49.886;8.074;2023-02-28T02:42:41;5.63;;;3.93;;
10894;SDS011;5500;49.886;8.074;2023-02-28T02:45:14;6.17;;;4.27;;
10894;SDS011;5500;49.886;8.074;2023-02-28T02:47:43;4.50;;;4.10;;
10894;SDS011;5500;49.886;8.074;2023-02-28T02:50:14;5.43;;;4.77;;
10894;SDS011;5500;49.886;8.074;2023-02-28T02:52:46;5.13;;;4.50;;
10894;SDS011;5500;49.886;8.074;2023-02-28T02:55:18;3.90;;;3.33;;
10894;SDS011;5500;49.886;8.074;2023-02-28T02:57:48;5.20;;;4.70;;
10894;SDS011;5500;49.886;8.074;2023-02-28T03:00:19;5.30;;;4.40;;
10894;SDS011;5500;49.886;8.074;2023-02-28T03:02:49;5.67;;;4.10;;
10894;SDS011;5500;49.886;8.074;2023-02-28T03:05:19;4.87;;;4.23;;
10894;SDS011;5500;49.886;8.074;2023-02-28T03:07:50;5.80;;;4.60;;
10894;SDS011;5500;49.886;8.074;2023-02-28T03:10:32;5.47;;;4.23;;
10894;SDS011;5500;49.886;8.074;2023-02-28T03:13:05;6.43;;;4.97;;
10894;SDS011;5500;49.886;8.074;2023-02-28T03:15:58;5.97;;;5.00;;
10894;SDS011;5500;49.886;8.074;2023-02-28T03:18:36;5.63;;;4.37;;
10894;SDS011;5500;49.886;8.074;2023-02-28T03:21:11;4.77;;;4.13;;
10894;SDS011;5500;49.886;8.074;2023-02-28T03:23:45;5.23;;;4.17;;
10894;SDS011;5500;49.886;8.074;2023-02-28T03:26:17;6.10;;;4.53;;
10894;SDS011;5500;49.886;8.074;2023-02-28T03:28:50;5.10;;;4.60;;
10894;SDS011;5500;49.886;8.074;2023-02-28T03:31:20;4.80;;;4.20;;
10894;SDS011;5500;49.886;8.074;2023-02-28T03:33:50;4.83;;;4.27;;
10894;SDS011;5500;49.886;8.074;2023-02-28T03:36:24;4.30;;;3.90;;
10894;SDS011;5500;49.886;8.074;2023-02-28T03:38:54;5.87;;;4.50;;
10894;SDS011;5500;49.886;8.074;2023-02-28T03:41:25;3.93;;;3.63;;
10894;SDS011;5500;49.886;8.074;2023-02-28T03:43:56;5.17;;;4.40;;
10894;SDS011;5500;49.886;8.074;2023-02-28T03:46:26;4.73;;;3.93;;
10894;SDS011;5500;49.886;8.074;2023-02-28T03:48:56;6.03;;;4.23;;
10894;SDS011;5500;49.886;8.074;2023-02-28T03:51:29;4.67;;;3.93;;
10894;SDS011;5500;49.886;8.074;2023-02-28T03:53:59;5.70;;;4.07;;
10894;SDS011;5500;49.886;8.074;2023-02-28T03:56:32;4.97;;;4.00;;
10894;SDS011;5500;49.886;8.074;2023-02-28T03:59:02;8.33;;;3.97;;
10894;SDS011;5500;49.886;8.074;2023-02-28T04:01:33;5.00;;;4.30;;
10894;SDS011;5500;49.886;8.074;2023-02-28T04:04:02;5.23;;;3.97;;
10894;SDS011;5500;49.886;8.074;2023-02-28T04:06:32;7.57;;;3.93;;
10894;SDS011;5500;49.886;8.074;2023-02-28T04:09:01;3.87;;;3.47;;
10894;SDS011;5500;49.886;8.074;2023-02-28T04:11:31;4.60;;;3.93;;
10894;SDS011;5500;49.886;8.074;2023-02-28T04:14:00;3.70;;;3.40;;
10894;SDS011;5500;49.886;8.074;2023-02-28T04:16:29;3.87;;;3.50;;
10894;SDS011;5500;49.886;8.074;2023-02-28T04:19:01;4.30;;;3.57;;
10894;SDS011;5500;49.886;8.074;2023-02-28T04:21:29;5.50;;;3.73;;
10894;SDS011;5500;49.886;8.074;2023-02-28T04:23:59;4.30;;;3.90;;
10894;SDS011;5500;49.886;8.074;2023-02-28T04:26:28;3.87;;;3.50;;
10894;SDS011;5500;49.886;8.074;2023-02-28T04:28:56;5.07;;;3.77;;
10894;SDS011;5500;49.886;8.074;2023-02-28T04:31:24;4.13;;;3.50;;
10894;SDS011;5500;49.886;8.074;2023-02-28T04:33:52;3.50;;;3.20;;
10894;SDS011;5500;49.886;8.074;2023-02-28T04:36:20;3.50;;;3.20;;
10894;SDS011;5500;49.886;8.074;2023-02-28T04:38:49;4.67;;;3.90;;
10894;SDS011;5500;49.886;8.074;2023-02-28T04:41:18;3.90;;;3.27;;
10894;SDS011;5500;49.886;8.074;2023-02-28T04:43:46;8.37;;;3.70;;
10894;SDS011;5500;49.886;8.074;2023-02-28T04:46:14;4.17;;;3.70;;
10894;SDS011;5500;49.886;8.074;2023-02-28T04:48:42;3.70;;;3.40;;
10894;SDS011;5500;49.886;8.074;2023-02-28T04:51:11;3.70;;;3.40;;
10894;SDS011;5500;49.886;8.074;2023-02-28T04:53:40;5.90;;;3.60;;
10894;SDS011;5500;49.886;8.074;2023-02-28T04:56:10;5.00;;;3.33;;
10894;SDS011;5500;49.886;8.074;2023-02-28T04:58:40;4.80;;;3.63;;
10894;SDS011;5500;49.886;8.074;2023-02-28T05:01:15;4.53;;;3.60;;
10894;SDS011;5500;49.886;8.074;2023-02-28T05:03:45;3.83;;;3.30;;
10894;SDS011;5500;49.886;8.074;2023-02-28T05:06:12;3.87;;;3.33;;
10894;SDS011;5500;49.886;8.074;2023-02-28T05:08:41;3.97;;;3.60;;
10894;SDS011;5500;49.886;8.074;2023-02-28T05:11:11;3.70;;;3.30;;
10894;SDS011;5500;49.886;8.074;2023-02-28T05:13:43;4.87;;;3.33;;
10894;SDS011;5500;49.886;8.074;2023-02-28T05:16:11;6.07;;;3.43;;
10894;SDS011;5500;49.886;8.074;2023-02-28T05:18:39;5.63;;;4.57;;
10894;SDS011;5500;49.886;8.074;2023-02-28T05:21:12;5.47;;;3.60;;
10894;SDS011;5500;49.886;8.074;2023-02-28T05:23:51;4.63;;;3.40;;
10894;SDS011;5500;49.886;8.074;2023-02-28T05:26:18;4.00;;;3.37;;
10894;SDS011;5500;49.886;8.074;2023-02-28T05:28:47;4.30;;;3.63;;
10894;SDS011;5500;49.886;8.074;2023-02-28T05:31:15;4.50;;;3.57;;
10894;SDS011;5500;49.886;8.074;2023-02-28T05:33:42;5.03;;;3.30;;
10894;SDS011;5500;49.886;8.074;2023-02-28T05:36:10;3.40;;;3.10;;
10894;SDS011;5500;49.886;8.074;2023-02-28T05:38:38;5.30;;;3.50;;
10894;SDS011;5500;49.886;8.074;2023-02-28T05:41:06;4.53;;;3.40;;
10894;SDS011;5500;49.886;8.074;2023-02-28T05:43:34;5.00;;;3.07;;
10894;SDS011;5500;49.886;8.074;2023-02-28T05:46:05;5.70;;;3.37;;
10894;SDS011;5500;49.886;8.074;2023-02-28T05:48:33;3.20;;;2.90;;
10894;SDS011;5500;49.886;8.074;2023-02-28T05:51:01;3.53;;;3.10;;
10894;SDS011;5500;49.886;8.074;2023-02-28T05:53:29;3.20;;;2.90;;
10894;SDS011;5500;49.886;8.074;2023-02-28T05:55:58;6.50;;;4.00;;
10894;SDS011;5500;49.886;8.074;2023-02-28T05:58:25;4.23;;;3.63;;
10894;SDS011;5500;49.886;8.074;2023-02-28T06:00:56;3.60;;;3.30;;
10894;SDS011;5500;49.886;8.074;2023-02-28T06:03:26;6.50;;;3.57;;
10894;SDS011;5500;49.886;8.074;2023-02-28T06:05:54;3.73;;;3.13;;
10894;SDS011;5500;49.886;8.074;2023-02-28T06:08:22;4.87;;;4.00;;
10894;SDS011;5500;49.886;8.074;2023-02-28T06:10:49;4.50;;;3.80;;
10894;SDS011;5500;49.886;8.074;2023-02-28T06:13:17;5.30;;;3.37;;
10894;SDS011;5500;49.886;8.074;2023-02-28T06:15:45;5.00;;;3.70;;
10894;SDS011;5500;49.886;8.074;2023-02-28T06:18:12;4.63;;;3.50;;
10894;SDS011;5500;49.886;8.074;2023-02-28T06:20:41;4.90;;;3.73;;
10894;SDS011;5500;49.886;8.074;2023-02-28T06:23:09;4.07;;;3.60;;
10894;SDS011;5500;49.886;8.074;2023-02-28T06:25:37;3.40;;;3.10;;
10894;SDS011;5500;49.886;8.074;2023-02-28T06:28:05;3.30;;;2.90;;
10894;SDS011;5500;49.886;8.074;2023-02-28T06:30:32;5.10;;;3.30;;
10894;SDS011;5500;49.886;8.074;2023-02-28T06:33:00;6.43;;;3.30;;
10894;SDS011;5500;49.886;8.074;2023-02-28T06:35:28;3.80;;;3.03;;
10894;SDS011;5500;49.886;8.074;2023-02-28T06:37:57;3.33;;;2.97;;
10894;SDS011;5500;49.886;8.074;2023-02-28T06:40:24;2.90;;;2.60;;
10894;SDS011;5500;49.886;8.074;2023-02-28T06:42:52;3.10;;;2.80;;
10894;SDS011;5500;49.886;8.074;2023-02-28T06:45:20;4.33;;;2.90;;
10894;SDS011;5500;49.886;8.074;2023-02-28T06:47:47;4.73;;;3.30;;
10894;SDS011;5500;49.886;8.074;2023-02-28T06:50:18;6.43;;;3.47;;
10894;SDS011;5500;49.886;8.074;2023-02-28T06:52:46;3.30;;;3.00;;
10894;SDS011;5500;49.886;8.074;2023-02-28T06:55:15;4.10;;;2.90;;
10894;SDS011;5500;49.886;8.074;2023-02-28T06:57:44;4.50;;;2.97;;
10894;SDS011;5500;49.886;8.074;2023-02-28T07:00:12;3.27;;;2.87;;
10894;SDS011;5500;49.886;8.074;2023-02-28T07:02:40;3.10;;;2.90;;
10894;SDS011;5500;49.886;8.074;2023-02-28T07:05:08;4.60;;;2.97;;
10894;SDS011;5500;49.886;8.074;2023-02-28T07:07:36;3.93;;;3.00;;
10894;SDS011;5500;49.886;8.074;2023-02-28T07:10:06;3.67;;;3.10;;
10894;SDS011;5500;49.886;8.074;2023-02-28T07:12:37;4.47;;;2.97;;
10894;SDS011;5500;49.886;8.074;2023-02-28T07:15:05;4.57;;;2.77;;
10894;SDS011;5500;49.886;8.074;2023-02-28T07:17:33;3.77;;;2.93;;
10894;SDS011;5500;49.886;8.074;2023-02-28T07:20:01;6.47;;;3.00;;
10894;SDS011;5500;49.886;8.074;2023-02-28T07:22:30;3.83;;;3.13;;
10894;SDS011;5500;49.886;8.074;2023-02-28T07:24:58;5.27;;;3.10;;
10894;SDS011;5500;49.886;8.074;2023-02-28T07:27:26;4.17;;;2.90;;
10894;SDS011;5500;49.886;8.074;2023-02-28T07:29:55;3.43;;;2.83;;
10894;SDS011;5500;49.886;8.074;2023-02-28T07:32:22;4.30;;;2.90;;
10894;SDS011;5500;49.886;8.074;2023-02-28T07:34:50;3.43;;;2.40;;
10894;SDS011;5500;49.886;8.074;2023-02-28T07:37:18;4.63;;;2.80;;
10894;SDS011;5500;49.886;8.074;2023-02-28T07:39:46;3.77;;;2.93;;
10894;SDS011;5500;49.886;8.074;2023-02-28T07:42:14;3.63;;;2.87;;
10894;SDS011;5500;49.886;8.074;2023-02-28T07:44:41;2.90;;;2.60;;
10894;SDS011;5500;49.886;8.074;2023-02-28T07:47:10;4.97;;;3.27;;
10894;SDS011;5500;49.886;8.074;2023-02-28T07:49:38;3.20;;;2.90;;
10894;SDS011;5500;49.886;8.074;2023-02-28T07:52:06;3.93;;;2.90;;
10894;SDS011;5500;49.886;8.074;2023-02-28T07:54:37;3.27;;;2.53;;
10894;SDS011;5500;49.886;8.074;2023-02-28T07:57:05;3.83;;;2.90;;
10894;SDS011;5500;49.886;8.074;2023-02-28T07:59:32;3.50;;;3.20;;
10894;SDS011;5500;49.886;8.074;2023-02-28T08:02:00;3.43;;;3.00;;
10894;SDS011;5500;49.886;8.074;2023-02-28T08:04:29;3.27;;;2.83;;
10894;SDS011;5500;49.886;8.074;2023-02-28T08:06:59;3.53;;;3.00;;
10894;SDS011;5500;49.886;8.074;2023-02-28T08:09:26;4.50;;;3.17;;
10894;SDS011;5500;49.886;8.074;2023-02-28T08:11:56;4.67;;;3.17;;
10894;SDS011;5500;49.886;8.074;2023-02-28T08:14:23;5.53;;;3.10;;
10894;SDS011;5500;49.886;8.074;2023-02-28T08:16:51;4.17;;;3.10;;
10894;SDS011;5500;49.886;8.074;2023-02-28T08:19:19;3.97;;;2.90;;
10894;SDS011;5500;49.886;8.074;2023-02-28T08:21:48;3.43;;;2.93;;
10894;SDS011;5500;49.886;8.074;2023-02-28T08:24:15;4.87;;;3.07;;
10894;SDS011;5500;49.886;8.074;2023-02-28T08:26:43;5.33;;;2.83;;
10894;SDS011;5500;49.886;8.074;2023-02-28T08:29:11;6.20;;;3.30;;
10894;SDS011;5500;49.886;8.074;2023-02-28T08:31:38;4.57;;;3.30;;
10894;SDS011;5500;49.886;8.074;2023-02-28T08:34:06;3.67;;;3.20;;
10894;SDS011;5500;49.886;8.074;2023-02-28T08:36:34;6.37;;;3.80;;
10894;SDS011;5500;49.886;8.074;2023-02-28T08:39:03;6.97;;;4.07;;
10894;SDS011;5500;49.886;8.074;2023-02-28T08:41:31;7.23;;;3.67;;
10894;SDS011;5500;49.886;8.074;2023-02-28T08:43:59;4.30;;;3.10;;
10894;SDS011;5500;49.886;8.074;2023-02-28T08:46:27;5.23;;;2.77;;
10894;SDS011;5500;49.886;8.074;2023-02-28T08:48:55;6.17;;;3.40;;
10894;SDS011;5500;49.886;8.074;2023-02-28T08:51:26;3.50;;;3.20;;
10894;SDS011;5500;49.886;8.074;2023-02-28T08:53:55;3.60;;;3.07;;
10894;SDS011;5500;49.886;8.074;2023-02-28T08:56:26;7.03;;;4.00;;
10894;SDS011;5500;49.886;8.074;2023-02-28T08:58:55;6.13;;;3.20;;
10894;SDS011;5500;49.886;8.074;2023-02-28T09:01:24;4.63;;;3.13;;
10894;SDS011;5500;49.886;8.074;2023-02-28T09:03:55;3.37;;;3.07;;
10894;SDS011;5500;49.886;8.074;2023-02-28T09:06:24;3.80;;;3.50;;
10894;SDS011;5500;49.886;8.074;2023-02-28T09:08:55;4.53;;;3.50;;
10894;SDS011;5500;49.886;8.074;2023-02-28T09:11:24;6.07;;;3.80;;
10894;SDS011;5500;49.886;8.074;2023-02-28T09:13:53;5.17;;;3.60;;
10894;SDS011;5500;49.886;8.074;2023-02-28T09:16:22;4.67;;;3.47;;
10894;SDS011;5500;49.886;8.074;2023-02-28T09:18:50;4.17;;;3.37;;
10894;SDS011;5500;49.886;8.074;2023-02-28T09:21:18;5.13;;;3.50;;
10894;SDS011;5500;49.886;8.074;2023-02-28T09:23:47;4.60;;;3.40;;
10894;SDS011;5500;49.886;8.074;2023-02-28T09:26:16;6.37;;;4.17;;
10894;SDS011;5500;49.886;8.074;2023-02-28T09:28:45;3.43;;;3.13;;
10894;SDS011;5500;49.886;8.074;2023-02-28T09:31:15;4.47;;;3.50;;
10894;SDS011;5500;49.886;8.074;2023-02-28T09:33:47;3.57;;;3.27;;
10894;SDS011;5500;49.886;8.074;2023-02-28T09:36:15;5.37;;;3.63;;
10894;SDS011;5500;49.886;8.074;2023-02-28T09:38:42;5.60;;;3.70;;
10894;SDS011;5500;49.886;8.074;2023-02-28T09:41:14;7.13;;;3.70;;
10894;SDS011;5500;49.886;8.074;2023-02-28T09:43:44;4.60;;;3.60;;
10894;SDS011;5500;49.886;8.074;2023-02-28T09:46:21;4.57;;;3.00;;
10894;SDS011;5500;49.886;8.074;2023-02-28T09:48:54;3.53;;;2.83;;
10894;SDS011;5500;49.886;8.074;2023-02-28T09:51:27;5.87;;;3.40;;
10894;SDS011;5500;49.886;8.074;2023-02-28T09:53:57;2.97;;;2.67;;
10894;SDS011;5500;49.886;8.074;2023-02-28T09:56:28;5.63;;;3.23;;
10894;SDS011;5500;49.886;8.074;2023-02-28T09:59:00;4.97;;;2.80;;
10894;SDS011;5500;49.886;8.074;2023-02-28T10:01:33;3.20;;;2.70;;
10894;SDS011;5500;49.886;8.074;2023-02-28T10:04:05;3.27;;;2.90;;
10894;SDS011;5500;49.886;8.074;2023-02-28T10:06:38;3.97;;;2.97;;
10894;SDS011;5500;49.886;8.074;2023-02-28T10:09:08;4.87;;;3.17;;
10894;SDS011;5500;49.886;8.074;2023-02-28T10:11:40;4.00;;;2.70;;
10894;SDS011;5500;49.886;8.074;2023-02-28T10:14:10;4.57;;;3.17;;
10894;SDS011;5500;49.886;8.074;2023-02-28T10:16:42;4.07;;;2.80;;
10894;SDS011;5500;49.886;8.074;2023-02-28T10:19:14;7.50;;;3.57;;
10894;SDS011;5500;49.886;8.074;2023-02-28T10:21:44;4.50;;;3.17;;
10894;SDS011;5500;49.886;8.074;2023-02-28T10:24:19;3.90;;;3.50;;
10894;SDS011;5500;49.886;8.074;2023-02-28T10:26:48;3.60;;;3.30;;
10894;SDS011;5500;49.886;8.074;2023-02-28T10:29:17;5.90;;;3.63;;
10894;SDS011;5500;49.886;8.074;2023-02-28T10:31:46;3.70;;;3.03;;
10894;SDS011;5500;49.886;8.074;2023-02-28T10:34:14;3.03;;;2.70;;
10894;SDS011;5500;49.886;8.074;2023-02-28T10:36:42;4.97;;;3.07;;
10894;SDS011;5500;49.886;8.074;2023-02-28T10:42:04;3.63;;;2.97;;
10894;SDS011;5500;49.886;8.074;2023-02-28T10:44:32;4.57;;;3.20;;
10894;SDS011;5500;49.886;8.074;2023-02-28T10:47:01;6.97;;;3.00;;
10894;SDS011;5500;49.886;8.074;2023-02-28T10:49:29;4.57;;;3.43;;
10894;SDS011;5500;49.886;8.074;2023-02-28T10:51:58;4.03;;;3.17;;
10894;SDS011;5500;49.886;8.074;2023-02-28T10:54:27;6.27;;;3.90;;
10894;SDS011;5500;49.886;8.074;2023-02-28T10:57:07;6.20;;;3.60;;
10894;SDS011;5500;49.886;8.074;2023-02-28T10:59:36;4.67;;;3.80;;
10894;SDS011;5500;49.886;8.074;2023-02-28T11:02:12;5.43;;;3.60;;
10894;SDS011;5500;49.886;8.074;2023-02-28T11:05:02;6.00;;;3.93;;
10894;SDS011;5500;49.886;8.074;2023-02-28T11:07:30;4.07;;;3.30;;
10894;SDS011;5500;49.886;8.074;2023-02-28T11:10:16;5.53;;;3.47;;
10894;SDS011;5500;49.886;8.074;2023-02-28T11:12:46;4.73;;;3.70;;
10894;SDS011;5500;49.886;8.074;2023-02-28T11:15:21;4.47;;;3.63;;
10894;SDS011;5500;49.886;8.074;2023-02-28T11:17:54;5.17;;;3.80;;
10894;SDS011;5500;49.886;8.074;2023-02-28T11:20:23;4.73;;;3.80;;
10894;SDS011;5500;49.886;8.074;2023-02-28T11:22:52;4.90;;;3.67;;
10894;SDS011;5500;49.886;8.074;2023-02-28T11:25:21;6.50;;;3.73;;
10894;SDS011;5500;49.886;8.074;2023-02-28T11:27:51;6.33;;;4.30;;
10894;SDS011;5500;49.886;8.074;2023-02-28T11:30:23;5.03;;;3.93;;
10894;SDS011;5500;49.886;8.074;2023-02-28T11:32:57;5.13;;;3.13;;
10894;SDS011;5500;49.886;8.074;2023-02-28T11:35:27;5.03;;;3.40;;
10894;SDS011;5500;49.886;8.074;2023-02-28T11:37:57;3.77;;;3.43;;
10894;SDS011;5500;49.886;8.074;2023-02-28T11:40:29;4.13;;;3.47;;
10894;SDS011;5500;49.886;8.074;2023-02-28T11:43:03;4.70;;;3.40;;
10894;SDS011;5500;49.886;8.074;2023-02-28T11:45:38;5.67;;;4.17;;
10894;SDS011;5500;49.886;8.074;2023-02-28T11:48:17;5.60;;;3.87;;
10894;SDS011;5500;49.886;8.074;2023-02-28T11:50:52;4.00;;;3.57;;
10894;SDS011;5500;49.886;8.074;2023-02-28T11:53:30;6.33;;;4.07;;
10894;SDS011;5500;49.886;8.074;2023-02-28T11:56:08;3.87;;;3.37;;
10894;SDS011;5500;49.886;8.074;2023-02-28T11:58:41;7.47;;;4.20;;
10894;SDS011;5500;49.886;8.074;2023-02-28T12:04:12;3.90;;;3.50;;
10894;SDS011;5500;49.886;8.074;2023-02-28T12:06:45;3.57;;;3.27;;
10894;SDS011;5500;49.886;8.074;2023-02-28T12:09:23;3.83;;;3.40;;
10894;SDS011;5500;49.886;8.074;2023-02-28T12:12:01;4.53;;;3.10;;
10894;SDS011;5500;49.886;8.074;2023-02-28T12:14:44;4.20;;;3.63;;
10894;SDS011;5500;49.886;8.074;2023-02-28T12:17:21;5.93;;;3.73;;
10894;SDS011;5500;49.886;8.074;2023-02-28T12:19:56;4.70;;;3.63;;
10894;SDS011;5500;49.886;8.074;2023-02-28T12:22:30;6.87;;;3.80;;
10894;SDS011;5500;49.886;8.074;2023-02-28T12:28:02;4.63;;;3.57;;
10894;SDS011;5500;49.886;8.074;2023-02-28T12:30:31;5.03;;;3.50;;
10894;SDS011;5500;49.886;8.074;2023-02-28T12:33:01;7.03;;;3.40;;
10894;SDS011;5500;49.886;8.074;2023-02-28T12:35:33;6.17;;;3.50;;
10894;SDS011;5500;49.886;8.074;2023-02-28T12:38:04;4.53;;;3.50;;
10894;SDS011;5500;49.886;8.074;2023-02-28T12:40:35;5.00;;;3.53;;
10894;SDS011;5500;49.886;8.074;2023-02-28T12:43:10;4.87;;;3.43;;
10894;SDS011;5500;49.886;8.074;2023-02-28T12:45:41;4.37;;;3.70;;
10894;SDS011;5500;49.886;8.074;2023-02-28T12:48:13;4.10;;;3.70;;
10894;SDS011;5500;49.886;8.074;2023-02-28T12:50:44;4.30;;;3.83;;
10894;SDS011;5500;49.886;8.074;2023-02-28T12:53:13;5.10;;;4.03;;
10894;SDS011;5500;49.886;8.074;2023-02-28T12:55:46;5.43;;;3.60;;
10894;SDS011;5500;49.886;8.074;2023-02-28T12:58:19;4.33;;;3.90;;
10894;SDS011;5500;49.886;8.074;2023-02-28T13:00:55;4.43;;;3.70;;
10894;SDS011;5500;49.886;8.074;2023-02-28T13:03:45;6.53;;;3.87;;
10894;SDS011;5500;49.886;8.074;2023-02-28T13:06:24;4.10;;;3.40;;
10894;SDS011;5500;49.886;8.074;2023-02-28T13:09:04;4.17;;;3.30;;
10894;SDS011;5500;49.886;8.074;2023-02-28T13:11:37;6.77;;;3.70;;
10894;SDS011;5500;49.886;8.074;2023-02-28T13:14:16;4.10;;;3.30;;
10894;SDS011;5500;49.886;8.074;2023-02-28T13:16:58;4.43;;;3.63;;
10894;SDS011;5500;49.886;8.074;2023-02-28T13:19:28;4.63;;;4.23;;
10894;SDS011;5500;49.886;8.074;2023-02-28T13:21:58;4.10;;;3.27;;
10894;SDS011;5500;49.886;8.074;2023-02-28T13:24:36;4.90;;;4.40;;
10894;SDS011;5500;49.886;8.074;2023-02-28T13:33:23;4.17;;;3.60;;
10894;SDS011;5500;49.886;8.074;2023-02-28T13:36:22;4.47;;;3.87;;
10894;SDS011;5500;49.886;8.074;2023-02-28T13:38:54;5.23;;;4.30;;
10894;SDS011;5500;49.886;8.074;2023-02-28T13:41:44;4.97;;;4.40;;
10894;SDS011;5500;49.886;8.074;2023-02-28T13:44:14;5.50;;;4.07;;
10894;SDS011;5500;49.886;8.074;2023-02-28T13:49:46;4.37;;;3.93;;
10894;SDS011;5500;49.886;8.074;2023-02-28T13:52:15;6.23;;;4.27;;
10894;SDS011;5500;49.886;8.074;2023-02-28T13:54:52;5.77;;;4.80;;
10894;SDS011;5500;49.886;8.074;2023-02-28T13:57:35;4.57;;;4.07;;
10894;SDS011;5500;49.886;8.074;2023-02-28T14:00:17;4.93;;;4.07;;
10894;SDS011;5500;49.886;8.074;2023-02-28T14:03:10;7.27;;;4.90;;
10894;SDS011;5500;49.886;8.074;2023-02-28T14:05:44;4.40;;;4.00;;
10894;SDS011;5500;49.886;8.074;2023-02-28T14:08:14;5.00;;;4.00;;
10894;SDS011;5500;49.886;8.074;2023-02-28T14:10:46;5.90;;;4.57;;
10894;SDS011;5500;49.886;8.074;2023-02-28T14:16:11;4.47;;;4.07;;
10894;SDS011;5500;49.886;8.074;2023-02-28T14:18:41;5.10;;;4.50;;
10894;SDS011;5500;49.886;8.074;2023-02-28T14:21:11;6.33;;;4.50;;
10894;SDS011;5500;49.886;8.074;2023-02-28T14:26:35;5.77;;;4.47;;
10894;SDS011;5500;49.886;8.074;2023-02-28T14:29:17;5.80;;;4.30;;
10894;SDS011;5500;49.886;8.074;2023-02-28T14:31:54;6.83;;;4.77;;
10894;SDS011;5500;49.886;8.074;2023-02-28T14:34:30;6.37;;;5.23;;
10894;SDS011;5500;49.886;8.074;2023-02-28T14:37:02;6.47;;;4.70;;
10894;SDS011;5500;49.886;8.074;2023-02-28T14:39:30;5.20;;;4.50;;
10894;SDS011;5500;49.886;8.074;2023-02-28T14:42:00;6.67;;;4.67;;
10894;SDS011;5500;49.886;8.074;2023-02-28T14:44:30;7.10;;;4.83;;
10894;SDS011;5500;49.886;8.074;2023-02-28T14:46:59;5.90;;;4.80;;
10894;SDS011;5500;49.886;8.074;2023-02-28T14:49:31;5.53;;;4.27;;
10894;SDS011;5500;49.886;8.074;2023-02-28T14:52:03;5.27;;;4.67;;
10894;SDS011;5500;49.886;8.074;2023-02-28T14:54:36;8.13;;;5.00;;
10894;SDS011;5500;49.886;8.074;2023-02-28T14:57:05;10.07;;;5.03;;
10894;SDS011;5500;49.886;8.074;2023-02-28T14:59:34;5.20;;;4.63;;
10894;SDS011;5500;49.886;8.074;2023-02-28T15:02:16;7.53;;;5.17;;
10894;SDS011;5500;49.886;8.074;2023-02-28T15:04:52;6.37;;;4.97;;
10894;SDS011;5500;49.886;8.074;2023-02-28T15:07:20;5.23;;;4.73;;
10894;SDS011;5500;49.886;8.074;2023-02-28T15:10:07;6.70;;;4.70;;
10894;SDS011;5500;49.886;8.074;2023-02-28T15:12:42;7.23;;;4.67;;
10894;SDS011;5500;49.886;8.074;2023-02-28T15:15:16;5.13;;;4.40;;
10894;SDS011;5500;49.886;8.074;2023-02-28T15:17:44;6.53;;;4.63;;
10894;SDS011;5500;49.886;8.074;2023-02-28T15:20:13;6.00;;;4.53;;
10894;SDS011;5500;49.886;8.074;2023-02-28T15:22:42;5.87;;;4.67;;
10894;SDS011;5500;49.886;8.074;2023-02-28T15:25:10;5.60;;;4.60;;
10894;SDS011;5500;49.886;8.074;2023-02-28T15:27:44;5.80;;;4.67;;
10894;SDS011;5500;49.886;8.074;2023-02-28T15:30:15;7.07;;;4.50;;
10894;SDS011;5500;49.886;8.074;2023-02-28T15:32:44;6.67;;;4.93;;
10894;SDS011;5500;49.886;8.074;2023-02-28T15:35:20;6.20;;;5.00;;
10894;SDS011;5500;49.886;8.074;2023-02-28T15:37:54;6.40;;;4.73;;
10894;SDS011;5500;49.886;8.074;2023-02-28T15:40:23;8.93;;;4.60;;
10894;SDS011;5500;49.886;8.074;2023-02-28T15:43:02;7.63;;;5.03;;
10894;SDS011;5500;49.886;8.074;2023-02-28T15:45:33;5.00;;;4.50;;
10894;SDS011;5500;49.886;8.074;2023-02-28T15:48:05;6.13;;;4.77;;
10894;SDS011;5500;49.886;8.074;2023-02-28T15:50:39;6.33;;;4.80;;
10894;SDS011;5500;49.886;8.074;2023-02-28T15:53:11;5.73;;;4.90;;